Time;durP1;ratioP1;P1;durP2;ratioP2;P2;SDS_P1;SDS_P2;PMS_P1;PMS_P2;Temp;Humidity;BMP_temperature;BMP_pressure;BME280_temperature;BME280_humidity;BME280_pressure;Samples;Min_cycle;Max_cycle;Signal;HPM_P1;HPM_P2
2021/05/07 00:02:03;;;;;;;;;;;;;;;4.33;78.53;100148.22;6095799;29;19919;-71
2021/05/07 00:05:07;;;;;;;;;;;;;;;4.41;78.30;100150.78;6095236;29;19925;-72
2021/05/07 00:08:12;;;;;;;;;;;;;;;4.38;77.74;100140.38;6095754;29;19954;-71
2021/05/07 00:11:17;;;;;;;;;;;;;;;4.29;78.08;100152.31;6094302;29;20201;-72
2021/05/07 00:14:20;;;;;;;1.00;1.00;;;;;;;4.47;77.64;100152.69;6094767;29;20294;-72
2021/05/07 00:17:24;;;;;;;1.10;1.10;;;;;;;4.37;77.00;100150.34;6093761;29;20244;-72
2021/05/07 00:20:28;;;;;;;0.93;0.93;;;;;;;4.39;77.39;100158.25;6094595;29;20220;-71
2021/05/07 00:23:33;;;;;;;1.37;1.37;;;;;;;4.31;77.58;100159.19;6094302;29;20237;-72
2021/05/07 00:26:36;;;;;;;1.90;1.00;;;;;;;4.35;76.46;100151.56;6094593;29;20199;-72
2021/05/07 00:29:39;;;;;;;1.00;0.97;;;;;;;4.32;76.96;100163.56;6093554;29;20208;-72
2021/05/07 00:32:43;;;;;;;3.40;0.90;;;;;;;4.26;78.11;100163.53;6094855;29;20263;-72
2021/05/07 00:35:46;;;;;;;0.87;0.87;;;;;;;4.37;77.11;100165.69;6094909;29;20240;-72
2021/05/07 00:38:50;;;;;;;0.90;0.90;;;;;;;4.37;77.04;100165.69;6094177;29;20212;-72
2021/05/07 00:41:53;;;;;;;1.33;1.33;;;;;;;4.30;76.44;100170.19;6093494;29;20522;-71
2021/05/07 00:44:58;;;;;;;1.00;1.00;;;;;;;4.20;75.79;100164.28;6077435;29;20208;-72
2021/05/07 00:48:06;;;;;;;1.00;1.00;;;;;;;4.25;75.31;100173.50;6093450;29;20382;-72
2021/05/07 00:51:10;;;;;;;0.80;0.80;;;;;;;4.23;75.17;100180.94;6094120;29;20203;-71
2021/05/07 00:54:13;;;;;;;0.90;0.90;;;;;;;4.26;76.69;100172.44;6077420;29;20243;-72
2021/05/07 00:57:17;;;;;;;0.70;0.70;;;;;;;4.30;74.86;100175.59;6094327;29;20193;-72
2021/05/07 01:00:22;;;;;;;0.90;0.90;;;;;;;4.23;74.62;100150.41;6094457;29;20227;-72
2021/05/07 01:03:28;;;;;;;0.90;0.90;;;;;;;4.28;75.08;100178.50;6076375;29;20214;-72
2021/05/07 01:06:35;;;;;;;0.83;0.83;;;;;;;4.43;75.39;100175.72;6093628;29;20277;-70
2021/05/07 01:09:38;;;;;;;1.17;0.80;;;;;;;4.18;74.82;100178.00;6094290;29;20195;-71
2021/05/07 01:12:42;;;;;;;1.00;1.00;;;;;;;4.19;74.46;100178.81;6077510;29;20217;-72
2021/05/07 01:15:46;;;;;;;0.87;0.87;;;;;;;4.24;73.81;100170.97;6092564;29;20500;-72
2021/05/07 01:18:52;;;;;;;0.97;0.97;;;;;;;4.11;73.87;100165.44;6091488;29;20546;-72
2021/05/07 01:21:57;;;;;;;0.80;0.80;;;;;;;4.24;74.76;100170.97;6076818;29;20530;-72
2021/05/07 01:25:00;;;;;;;0.80;0.80;;;;;;;4.33;74.26;100172.53;6076716;29;20454;-72
2021/05/07 01:28:06;;;;;;;0.90;0.90;;;;;;;4.42;73.32;100174.06;6078432;29;20215;-72
2021/05/07 01:31:11;;;;;;;0.80;0.80;;;;;;;4.40;73.89;100182.34;6081516;29;20391;-72
2021/05/07 01:34:18;;;;;;;0.90;0.90;;;;;;;4.15;73.89;100172.13;6081057;29;20243;-72
2021/05/07 01:37:23;;;;;;;0.90;0.90;;;;;;;4.29;74.65;100180.16;6081152;29;20524;-71
2021/05/07 01:40:28;;;;;;;0.90;0.90;;;;;;;4.41;74.44;100177.81;6081310;29;20215;-71
2021/05/07 01:43:33;;;;;;;1.00;1.00;;;;;;;4.39;74.22;100185.25;6080523;29;20247;-73
2021/05/07 01:46:39;;;;;;;0.90;0.90;;;;;;;4.31;73.88;100171.88;6081155;29;20206;-72
2021/05/07 01:49:43;;;;;;;0.80;0.80;;;;;;;4.20;73.61;100185.88;6096829;29;20556;-71
2021/05/07 01:52:47;;;;;;;0.90;0.90;;;;;;;3.90;74.26;100151.91;6096171;29;20563;-71
2021/05/07 01:55:51;;;;;;;0.80;0.80;;;;;;;4.07;74.78;100185.75;6080517;29;20214;-72
2021/05/07 01:59:14;;;;;;;1.00;1.00;;;;;;;4.04;74.48;100176.16;6097165;29;20272;-72
2021/05/07 02:02:18;;;;;;;0.83;0.83;;;;;;;3.99;74.26;100193.94;6096875;29;20295;-72
2021/05/07 02:05:23;;;;;;;0.90;0.90;;;;;;;3.89;74.78;100163.72;6097157;29;20249;-71
2021/05/07 02:08:28;;;;;;;0.97;0.97;;;;;;;4.01;74.20;100186.50;6097374;29;20230;-72
2021/05/07 02:11:31;;;;;;;0.90;0.90;;;;;;;3.97;75.17;100190.59;6097736;29;20092;-72
2021/05/07 02:14:40;;;;;;;0.97;0.97;;;;;;;4.10;75.27;100190.75;6096304;29;20528;-72
2021/05/07 02:17:45;;;;;;;1.07;1.00;;;;;;;3.90;76.28;100158.16;6096703;29;20385;-71
2021/05/07 02:20:48;;;;;;;1.60;1.07;;;;;;;4.12;75.28;100186.00;6096144;29;20403;-72
2021/05/07 02:23:54;;;;;;;1.10;1.10;;;;;;;4.04;75.34;100186.13;6079648;29;20205;-71
2021/05/07 02:26:57;;;;;;;1.00;1.00;;;;;;;4.06;76.65;100190.28;6095376;29;20208;-72
2021/05/07 02:30:00;;;;;;;1.20;1.20;;;;;;;3.97;76.10;100179.81;6097632;29;19978;-71
2021/05/07 02:33:06;;;;;;;1.20;1.20;;;;;;;3.90;76.41;100205.91;6080448;29;20237;-72
2021/05/07 02:36:11;;;;;;;1.00;1.00;;;;;;;3.85;76.50;100192.13;6096016;29;20379;-72
2021/05/07 02:39:16;;;;;;;1.10;1.10;;;;;;;3.84;76.33;100202.09;6095203;29;20197;-72
2021/05/07 02:42:20;;;;;;;1.00;1.00;;;;;;;3.67;77.42;100206.84;6080174;29;20232;-72
2021/05/07 02:45:25;;;;;;;1.30;1.30;;;;;;;3.68;78.27;100207.69;6079145;29;20212;-72
2021/05/07 02:48:29;;;;;;;1.00;1.00;;;;;;;3.47;79.88;100203.03;6095605;29;20362;-72
2021/05/07 02:51:32;;;;;;;1.20;1.20;;;;;;;3.57;79.05;100183.91;6096896;29;20212;-72
2021/05/07 02:54:37;;;;;;;1.30;1.30;;;;;;;3.84;80.01;100201.25;6095987;29;20435;-72
2021/05/07 02:57:40;;;;;;;1.17;1.10;;;;;;;3.57;79.48;100216.28;6079470;29;20214;-71
2021/05/07 03:00:46;;;;;;;1.20;1.20;;;;;;;3.64;79.18;100212.63;6078558;29;20214;-72
2021/05/07 03:03:50;;;;;;;1.50;1.40;;;;;;;3.87;79.64;100222.47;6096597;29;20263;-72
2021/05/07 03:06:53;;;;;;;1.30;1.30;;;;;;;3.83;79.40;100223.88;6095656;29;20264;-73
2021/05/07 03:09:57;;;;;;;1.27;1.27;;;;;;;3.57;78.47;100233.25;6095788;29;20228;-72
2021/05/07 03:13:04;;;;;;;1.30;1.30;;;;;;;3.59;78.70;100223.16;6096414;29;20195;-72
2021/05/07 03:16:07;;;;;;;1.53;1.53;;;;;;;3.58;77.63;100224.16;6096151;29;20232;-72
2021/05/07 03:19:10;;;;;;;1.80;1.63;;;;;;;3.51;77.74;100217.84;6095041;29;20244;-72
2021/05/07 03:22:13;;;;;;;1.40;1.40;;;;;;;3.75;78.40;100230.19;6095835;29;20215;-71
2021/05/07 03:25:18;;;;;;;1.50;1.50;;;;;;;3.84;77.76;100228.22;6096071;29;20312;-73
2021/05/07 03:28:21;;;;;;;1.50;1.50;;;;;;;3.66;77.55;100237.56;6094884;29;20391;-72
2021/05/07 03:31:25;;;;;;;1.43;1.43;;;;;;;3.58;77.21;100234.94;6095067;29;20290;-72
2021/05/07 03:34:28;;;;;;;1.87;1.67;;;;;;;3.64;77.42;100234.22;6095512;29;20229;-72
2021/05/07 03:37:31;;;;;;;1.20;1.20;;;;;;;3.58;77.30;100228.72;6095851;29;20286;-72
2021/05/07 03:40:35;;;;;;;1.73;1.63;;;;;;;3.51;77.45;100239.44;6095746;29;20271;-73
2021/05/07 03:43:38;;;;;;;2.10;1.67;;;;;;;3.50;77.89;100248.53;6094730;29;20214;-71
2021/05/07 03:46:41;;;;;;;5.47;1.63;;;;;;;3.48;77.83;100250.56;6094329;29;20403;-72
2021/05/07 03:49:45;;;;;;;1.50;1.50;;;;;;;3.21;77.73;100248.50;6095260;29;20195;-72
2021/05/07 03:52:48;;;;;;;1.77;1.70;;;;;;;3.39;77.89;100248.97;6078110;29;20233;-72
2021/05/07 03:55:56;;;;;;;1.57;1.57;;;;;;;3.38;78.28;100250.00;6095501;29;20199;-71
2021/05/07 03:58:59;;;;;;;1.50;1.50;;;;;;;3.58;78.28;100245.75;6094176;29;20488;-72
2021/05/07 04:02:02;;;;;;;1.60;1.60;;;;;;;3.50;77.10;100240.44;6093982;29;20525;-72
2021/05/07 04:05:08;;;;;;;1.70;1.40;;;;;;;3.51;77.48;100228.63;6093889;29;20249;-71
2021/05/07 04:08:14;;;;;;;1.60;1.40;;;;;;;3.62;77.16;100252.41;6094913;29;20303;-71
2021/05/07 04:11:26;;;;;;;1.77;1.77;;;;;;;3.53;76.08;100256.25;6093918;29;20408;-72
2021/05/07 04:14:29;;;;;;;1.80;1.80;;;;;;;3.43;76.84;100257.53;6095018;29;20200;-72
2021/05/07 04:17:32;;;;;;;1.60;1.60;;;;;;;3.58;76.61;100270.00;6093873;29;20240;-71
2021/05/07 04:20:36;;;;;;;1.60;1.60;;;;;;;3.47;75.96;100265.06;6093933;29;20219;-71
2021/05/07 04:23:50;;;;;;;1.80;1.80;;;;;;;3.55;77.17;100265.00;6093484;29;20220;-72
2021/05/07 04:26:54;;;;;;;1.73;1.63;;;;;;;3.67;75.57;100271.59;6094576;29;20275;-72
2021/05/07 04:29:57;;;;;;;3.23;1.90;;;;;;;3.85;75.14;100262.28;6093447;29;20490;-72
2021/05/07 04:33:00;;;;;;;1.80;1.80;;;;;;;3.77;76.81;100266.75;6094789;29;20196;-72
2021/05/07 04:36:05;;;;;;;1.90;1.80;;;;;;;3.66;76.10;100286.13;6093569;29;20222;-72
2021/05/07 04:39:10;;;;;;;1.93;1.90;;;;;;;3.72;76.08;100274.56;6093700;29;20197;-71
2021/05/07 04:42:14;;;;;;;1.80;1.80;;;;;;;3.73;75.37;100280.78;6094556;29;20236;-72
2021/05/07 04:45:18;;;;;;;1.87;1.80;;;;;;;3.73;75.66;100281.66;6094558;29;20216;-73
2021/05/07 04:48:22;;;;;;;2.20;2.10;;;;;;;3.73;75.99;100292.44;6094411;29;20192;-73
2021/05/07 04:51:25;;;;;;;1.87;1.87;;;;;;;3.69;75.87;100280.34;6094547;29;20228;-72
2021/05/07 04:54:28;;;;;;;1.50;1.50;;;;;;;3.76;75.22;100286.66;6093253;29;20525;-71
2021/05/07 04:57:32;;;;;;;1.70;1.70;;;;;;;3.76;75.82;100275.88;6093231;29;20570;-71
2021/05/07 05:00:35;;;;;;;1.80;1.80;;;;;;;3.71;75.99;100281.00;6094394;29;20230;-72
2021/05/07 05:03:38;;;;;;;7.30;1.80;;;;;;;3.93;75.99;100281.09;6096358;29;20259;-73
2021/05/07 05:06:41;;;;;;;2.03;2.03;;;;;;;3.92;75.48;100290.19;6097711;29;20432;-72
2021/05/07 05:09:44;;;;;;;1.90;1.90;;;;;;;3.96;75.51;100292.31;6098663;29;20245;-72
2021/05/07 05:12:49;;;;;;;1.80;1.80;;;;;;;4.09;74.78;100287.09;6098596;29;20199;-72
2021/05/07 05:15:54;;;;;;;2.50;2.50;;;;;;;3.89;74.68;100295.97;6097282;29;20409;-73
2021/05/07 05:18:57;;;;;;;2.00;1.93;;;;;;;3.79;74.47;100297.09;6097821;29;20254;-72
2021/05/07 05:22:00;;;;;;;2.00;1.90;;;;;;;3.72;74.65;100246.75;6098369;29;20267;-72
2021/05/07 05:25:05;;;;;;;2.10;2.00;;;;;;;4.18;73.93;100295.94;6097200;29;20420;-72
2021/05/07 05:28:09;;;;;;;2.40;2.30;;;;;;;4.19;73.41;100297.59;6098640;29;20199;-72
2021/05/07 05:31:13;;;;;;;1.80;1.80;;;;;;;4.13;74.76;100298.38;6098681;29;20205;-72
2021/05/07 05:34:16;;;;;;;2.00;1.90;;;;;;;4.01;73.53;100305.25;6097741;29;20198;-72
2021/05/07 05:37:20;;;;;;;2.20;2.20;;;;;;;3.97;74.37;100309.38;6080591;29;20405;-72
2021/05/07 05:40:23;;;;;;;2.20;2.10;;;;;;;4.17;74.19;100299.66;6096896;29;20539;-72
2021/05/07 05:43:28;;;;;;;5.30;2.20;;;;;;;4.42;73.31;100295.59;6096831;29;20299;-72
2021/05/07 05:46:31;;;;;;;3.27;2.13;;;;;;;4.26;73.05;100298.53;6098176;29;20193;-73
2021/05/07 05:49:34;;;;;;;2.30;2.17;;;;;;;4.41;73.47;100304.75;6097856;29;20192;-72
2021/05/07 05:52:37;;;;;;;2.00;2.00;;;;;;;4.32;71.92;100303.16;6080135;29;20281;-73
2021/05/07 05:55:40;;;;;;;2.03;2.03;;;;;;;4.43;72.32;100299.97;6097627;29;20255;-72
2021/05/07 05:58:44;;;;;;;2.55;2.45;;;;;;;4.61;72.04;100308.50;6096637;29;20750;-71
2021/05/07 06:01:47;;;;;;;3.30;2.20;;;;;;;4.55;71.10;100300.31;6096574;29;20246;-72
2021/05/07 06:04:59;;;;;;;2.40;2.40;;;;;;;4.38;72.96;100310.50;6096357;29;20273;-72
2021/05/07 06:08:04;;;;;;;2.43;2.33;;;;;;;4.59;70.80;100310.56;6097244;29;20192;-72
2021/05/07 06:11:09;;;;;;;2.40;2.20;;;;;;;4.74;70.13;100319.44;6097638;29;20191;-72
2021/05/07 06:14:13;;;;;;;2.10;2.10;;;;;;;4.68;70.84;100322.91;6096215;29;20195;-72
2021/05/07 06:17:16;;;;;;;5.07;2.10;;;;;;;4.59;70.98;100309.72;6096850;29;20241;-72
2021/05/07 06:20:20;;;;;;;1.93;1.93;;;;;;;4.71;70.77;100325.22;6097084;29;20372;-71
2021/05/07 06:23:24;;;;;;;2.27;2.23;;;;;;;4.49;70.48;100310.03;6097099;29;20221;-72
2021/05/07 06:26:27;;;;;;;2.10;2.10;;;;;;;4.40;70.75;100327.38;6095826;29;20538;-71
2021/05/07 06:29:31;;;;;;;1.90;1.90;;;;;;;4.46;70.32;100326.63;6095906;29;20225;-72
2021/05/07 06:32:34;;;;;;;2.00;2.00;;;;;;;4.31;70.07;100333.91;6097005;29;20267;-72
2021/05/07 06:35:37;;;;;;;2.30;2.20;;;;;;;4.42;70.50;100336.09;6096906;29;20239;-72
2021/05/07 06:38:40;;;;;;;1.90;1.90;;;;;;;4.33;71.19;100321.06;6095949;29;20223;-72
2021/05/07 06:41:43;;;;;;;2.77;2.20;;;;;;;4.54;70.74;100339.16;6096305;29;20225;-72
2021/05/07 06:44:47;;;;;;;2.57;2.37;;;;;;;4.56;70.13;100337.94;6095658;29;20222;-72
2021/05/07 06:47:52;;;;;;;1.97;1.97;;;;;;;4.55;69.74;100330.88;6094437;29;20192;-72
2021/05/07 06:50:55;;;;;;;2.20;2.20;;;;;;;4.71;70.73;100336.03;6095496;29;20192;-72
2021/05/07 06:53:59;;;;;;;4.10;2.10;;;;;;;4.86;70.11;100350.34;6095507;29;20250;-72
2021/05/07 06:57:02;;;;;;;3.20;2.23;;;;;;;4.83;70.00;100339.06;6095510;29;20344;-73
2021/05/07 07:00:09;;;;;;;3.70;2.23;;;;;;;4.75;69.04;100340.03;6096659;29;20260;-72
2021/05/07 07:03:21;;;;;;;2.00;2.00;;;;;;;4.82;69.21;100332.84;6095318;29;20523;-72
2021/05/07 07:06:24;;;;;;;5.17;1.90;;;;;;;4.85;69.26;100343.25;6095434;29;20193;-72
2021/05/07 07:09:27;;;;;;;3.43;2.03;;;;;;;4.97;68.56;100349.84;6095216;29;20193;-72
2021/05/07 07:12:30;;;;;;;1.80;1.80;;;;;;;5.12;68.37;100349.78;6096176;29;20197;-72
2021/05/07 07:15:34;;;;;;;2.27;2.17;;;;;;;5.16;68.33;100352.94;6096171;29;20197;-72
2021/05/07 07:18:38;;;;;;;1.90;1.90;;;;;;;5.16;68.12;100352.94;6095775;29;20325;-75
2021/05/07 07:21:41;;;;;;;2.20;2.20;;;;;;;5.14;68.72;100352.25;6096203;29;20200;-72
2021/05/07 07:24:44;;;;;;;2.73;1.90;;;;;;;5.03;68.27;100365.28;6094962;29;20225;-72
2021/05/07 07:27:47;;;;;;;3.07;2.10;;;;;;;5.02;69.16;100360.91;6094865;29;20379;-72
2021/05/07 07:30:51;;;;;;;1.97;1.97;;;;;;;5.26;68.62;100356.16;6095928;29;20228;-73
2021/05/07 07:33:55;;;;;;;1.90;1.80;;;;;;;5.18;66.71;100359.81;6095562;29;20195;-72
2021/05/07 07:36:58;;;;;;;1.50;1.50;;;;;;;5.07;67.25;100369.28;6095650;29;20267;-71
2021/05/07 07:40:01;;;;;;;2.00;1.90;;;;;;;5.13;67.29;100366.84;6095218;29;20408;-72
2021/05/07 07:43:12;;;;;;;2.97;1.90;;;;;;;5.15;66.97;100353.94;6094264;29;20498;-72
2021/05/07 07:46:16;;;;;;;2.43;1.73;;;;;;;5.19;67.59;100371.47;6095493;29;20200;-72
2021/05/07 07:49:19;;;;;;;1.80;1.80;;;;;;;5.10;67.49;100378.03;6093987;29;20224;-73
2021/05/07 07:52:23;;;;;;;1.73;1.73;;;;;;;5.23;67.54;100372.75;6094179;29;20515;-72
2021/05/07 07:55:26;;;;;;;1.97;1.90;;;;;;;5.29;66.93;100382.81;6095203;29;20199;-72
2021/05/07 07:58:29;;;;;;;2.00;1.53;;;;;;;5.35;66.99;100376.59;6095127;29;20202;-72
2021/05/07 08:01:33;;;;;;;2.93;1.67;;;;;;;5.37;66.90;100369.13;6095225;29;20194;-72
2021/05/07 08:04:37;;;;;;;1.90;1.90;;;;;;;5.39;66.53;100377.91;6094715;29;20261;-72
2021/05/07 08:07:40;;;;;;;2.20;1.90;;;;;;;5.27;67.92;100385.69;6094060;29;20507;-72
2021/05/07 08:10:44;;;;;;;1.80;1.80;;;;;;;5.31;68.14;100391.56;6094954;29;20226;-71
2021/05/07 08:13:47;;;;;;;1.87;1.87;;;;;;;5.34;67.93;100383.06;6094816;29;20194;-72
2021/05/07 08:16:51;;;;;;;;;;;;;;;5.20;66.79;100397.47;6094656;29;20294;-72
2021/05/07 08:20:02;;;;;;;;;;;;;;;5.21;67.48;100393.75;6094490;29;19955;-72
2021/05/07 08:23:07;;;;;;;;;;;;;;;5.38;67.19;100392.44;6095910;29;19926;-72
2021/05/07 08:26:10;;;;;;;1.90;1.80;;;;;;;5.58;67.52;100399.72;6094812;29;20067;-72
2021/05/07 08:29:14;;;;;;;1.80;1.70;;;;;;;5.33;66.99;100422.81;6094171;29;20229;-72
2021/05/07 08:32:18;;;;;;;1.50;1.50;;;;;;;5.36;67.64;100416.16;6093252;29;20385;-73
2021/05/07 08:35:21;;;;;;;1.80;1.80;;;;;;;5.39;67.87;100413.06;6094513;29;20239;-72
2021/05/07 08:38:24;;;;;;;1.80;1.80;;;;;;;5.30;67.55;100416.94;6092395;29;20496;-71
2021/05/07 08:41:28;;;;;;;1.70;1.70;;;;;;;5.45;67.46;100425.81;6093349;29;20433;-72
2021/05/07 08:44:31;;;;;;;2.30;1.83;;;;;;;5.54;67.23;100424.66;6093816;29;20213;-72
2021/05/07 08:47:35;;;;;;;;;;;;;;;4.88;68.03;100375.31;6094063;29;20153;-72
2021/05/07 08:50:38;;;;;;;;;;;;;;;5.36;68.39;100459.44;6077698;29;19961;-72
2021/05/07 08:53:42;;;;;;;;;;;;;;;5.33;67.59;100449.00;6093413;29;20018;-73
2021/05/07 08:57:05;;;;;;;;;;;;;;;5.20;68.24;100448.88;6094462;29;19982;-73
2021/05/07 09:00:11;;;;;;;;;;;;;;;5.37;68.87;100444.88;6094421;29;19943;-73
2021/05/07 09:03:20;;;;;;;;;;;;;;;5.16;69.13;100458.41;6094639;29;19982;-73
2021/05/07 09:06:24;;;;;;;;;;;;;;;5.32;69.78;100458.13;6094970;29;19967;-72
2021/05/07 09:09:28;;;;;;;;;;;;;;;5.51;69.32;100452.09;6093663;29;20214;-72
2021/05/07 09:12:41;;;;;;;1.90;1.90;;;;;;;5.45;69.73;100466.38;6093031;29;20030;-71
2021/05/07 09:15:45;;;;;;;;;;;;;;;5.63;69.56;100477.59;6093239;29;20482;-72
2021/05/07 09:18:50;;;;;;;;;;;;;;;5.47;71.09;100467.88;6094752;29;19919;-72
2021/05/07 09:21:54;;;;;;;;;;;;;;;5.49;70.54;100470.41;6094303;29;19920;-72
2021/05/07 09:25:09;;;;;;;1.80;1.80;;;;;;;5.22;70.50;100463.88;6093312;29;20174;-72
2021/05/07 09:28:16;;;;;;;1.87;1.87;;;;;;;5.49;71.75;100481.22;6094311;29;20192;-74
2021/05/07 09:31:20;;;;;;;2.50;2.40;;;;;;;5.60;71.13;100478.84;6093961;29;20191;-73
2021/05/07 09:34:24;;;;;;;1.90;1.80;;;;;;;5.65;71.26;100497.19;6092716;29;20259;-72
2021/05/07 09:37:28;;;;;;;2.17;2.10;;;;;;;5.53;71.62;100501.44;6093703;29;20191;-72
2021/05/07 09:40:31;;;;;;;2.97;2.10;;;;;;;5.41;73.51;100494.88;6093775;29;20271;-72
2021/05/07 09:43:35;;;;;;;2.30;2.20;;;;;;;5.51;72.67;100500.81;6092569;29;20517;-72
2021/05/07 09:46:39;;;;;;;2.43;1.83;;;;;;;5.37;72.44;100489.00;6093013;29;20215;-73
2021/05/07 09:49:43;;;;;;;2.30;2.20;;;;;;;5.52;73.04;100499.78;6095938;29;20192;-71
2021/05/07 09:52:50;;;;;;;2.20;2.10;;;;;;;5.58;72.61;100515.22;6098026;29;20199;-72
2021/05/07 09:55:57;;;;;;;1.93;1.93;;;;;;;5.34;73.61;100526.44;6097602;29;20192;-72
2021/05/07 09:59:01;;;;;;;1.93;1.90;;;;;;;5.37;73.07;100526.03;6096554;29;20411;-72
2021/05/07 10:02:05;;;;;;;1.67;1.67;;;;;;;5.46;72.84;100531.16;6096440;29;20191;-72
2021/05/07 10:05:10;;;;;;;2.13;1.83;;;;;;;5.63;71.75;100534.44;6096515;29;20576;-72
2021/05/07 10:08:14;;;;;;;1.73;1.73;;;;;;;5.61;70.86;100528.38;6096524;29;20500;-73
2021/05/07 10:11:19;;;;;;;3.40;1.60;;;;;;;5.66;72.05;100529.50;6097384;29;20216;-73
2021/05/07 10:14:24;;;;;;;1.83;1.83;;;;;;;5.78;71.03;100529.81;6097631;29;20279;-72
2021/05/07 10:17:27;;;;;;;2.33;2.20;;;;;;;5.82;71.08;100535.69;6096725;29;20243;-73
2021/05/07 10:20:45;;;;;;;1.80;1.80;;;;;;;5.85;70.05;100541.59;6096143;29;20387;-73
2021/05/07 10:23:51;;;;;;;1.93;1.83;;;;;;;5.84;70.85;100539.03;6096808;29;20219;-73
2021/05/07 10:26:54;;;;;;;1.77;1.77;;;;;;;5.88;70.62;100541.19;6096066;29;20496;-73
2021/05/07 10:29:59;;;;;;;1.90;1.90;;;;;;;5.89;71.81;100548.28;6095752;29;20193;-72
2021/05/07 10:33:04;;;;;;;1.90;1.90;;;;;;;5.83;71.44;100549.00;6095805;29;20419;-73
2021/05/07 10:36:11;;;;;;;1.80;1.80;;;;;;;5.82;72.66;100552.78;6096046;29;20196;-72
2021/05/07 10:39:19;;;;;;;1.87;1.87;;;;;;;5.55;72.03;100546.22;6096920;29;20197;-72
2021/05/07 10:42:22;;;;;;;1.90;1.90;;;;;;;5.70;74.11;100554.28;6096895;29;20192;-72
2021/05/07 10:45:42;;;;;;;2.00;2.00;;;;;;;5.84;73.65;100556.13;6097006;29;20287;-73
2021/05/07 10:48:51;;;;;;;1.80;1.80;;;;;;;6.00;72.66;100555.91;6096636;29;20192;-73
2021/05/07 10:51:57;;;;;;;2.90;1.90;;;;;;;5.78;71.73;100545.22;6096698;29;20192;-73
2021/05/07 10:55:06;;;;;;;1.80;1.80;;;;;;;5.94;71.48;100572.91;6095811;29;20296;-72
2021/05/07 10:58:10;;;;;;;2.27;2.17;;;;;;;5.86;72.11;100575.72;6096486;29;20193;-71
2021/05/07 11:01:26;;;;;;;1.83;1.83;;;;;;;5.82;71.91;100577.13;6093499;29;20208;-72
2021/05/07 11:04:40;;;;;;;1.70;1.70;;;;;;;5.78;73.35;100577.72;6095391;29;20283;-72
2021/05/07 11:07:52;;;;;;;1.90;1.90;;;;;;;5.58;75.02;100572.06;6096427;29;20241;-73
2021/05/07 11:10:55;;;;;;;1.43;1.43;;;;;;;5.70;75.62;100581.34;6095241;29;20388;-73
2021/05/07 11:13:59;;;;;;;1.70;1.70;;;;;;;5.72;75.92;100579.31;6096040;29;20304;-73
2021/05/07 11:17:03;;;;;;;2.00;1.67;;;;;;;5.65;76.41;100589.22;6095127;29;20440;-73
2021/05/07 11:20:08;;;;;;;1.97;1.93;;;;;;;5.85;75.64;100606.56;6094678;29;20395;-72
2021/05/07 11:23:13;;;;;;;2.10;1.90;;;;;;;5.85;76.59;100598.44;6095739;29;20192;-71
2021/05/07 11:26:17;;;;;;;2.20;2.00;;;;;;;5.91;76.68;100594.94;6094676;29;20191;-73
2021/05/07 11:29:28;;;;;;;2.00;2.00;;;;;;;5.88;76.53;100598.03;6094652;29;20561;-72
2021/05/07 11:32:32;;;;;;;2.10;2.10;;;;;;;5.96;77.77;100597.91;6094589;29;20200;-72
2021/05/07 11:35:35;;;;;;;2.00;2.00;;;;;;;6.02;75.51;100602.56;6095406;29;20235;-73
2021/05/07 11:38:41;;;;;;;2.13;2.13;;;;;;;5.97;73.77;100609.59;6095261;29;20199;-73
2021/05/07 11:41:45;;;;;;;2.10;2.10;;;;;;;6.00;74.28;100610.06;6095171;29;20192;-72
2021/05/07 11:44:48;;;;;;;1.80;1.80;;;;;;;5.97;74.02;100610.44;6095038;29;20219;-73
2021/05/07 11:47:52;;;;;;;2.00;2.00;;;;;;;6.07;74.37;100621.78;6095246;29;20192;-73
2021/05/07 11:50:55;;;;;;;2.70;1.73;;;;;;;5.88;74.47;100616.97;6095204;29;20287;-72
2021/05/07 11:54:00;;;;;;;2.10;2.10;;;;;;;5.93;75.10;100619.97;6094953;29;20196;-72
2021/05/07 11:57:03;;;;;;;1.93;1.90;;;;;;;5.93;73.85;100625.38;6093874;29;20413;-72
2021/05/07 12:00:08;;;;;;;1.93;1.93;;;;;;;5.96;74.10;100625.00;6093803;29;20521;-73
2021/05/07 12:03:24;;;;;;;2.07;2.07;;;;;;;5.95;75.96;100623.34;6094776;29;20192;-72
2021/05/07 12:06:29;;;;;;;2.17;2.10;;;;;;;6.08;74.72;100618.06;6093644;29;20256;-72
2021/05/07 12:09:55;;;;;;;2.10;1.93;;;;;;;6.17;74.43;100622.31;6094689;29;20199;-72
2021/05/07 12:13:27;;;;;;;2.00;2.00;;;;;;;6.21;73.64;100626.28;6075330;29;20217;-73
2021/05/07 12:16:30;;;;;;;1.77;1.77;;;;;;;6.29;74.08;100637.00;6092811;29;20239;-72
2021/05/07 12:19:33;;;;;;;1.90;1.90;;;;;;;6.42;72.83;100641.69;6095980;29;20288;-72
2021/05/07 12:22:37;;;;;;;1.70;1.70;;;;;;;6.17;73.02;100633.13;6093539;29;20215;-73
2021/05/07 12:25:43;;;;;;;1.87;1.87;;;;;;;6.03;74.12;100639.47;6093507;29;20407;-73
2021/05/07 12:28:54;;;;;;;1.90;1.90;;;;;;;6.13;74.81;100645.41;6094223;29;20203;-73
2021/05/07 12:32:02;;;;;;;1.80;1.80;;;;;;;6.10;74.05;100642.22;6093782;29;20264;-73
2021/05/07 12:35:06;;;;;;;1.50;1.50;;;;;;;6.03;74.47;100647.59;6094727;29;20227;-71
2021/05/07 12:38:27;;;;;;;1.63;1.60;;;;;;;6.06;72.44;100655.31;6094401;29;20193;-72
2021/05/07 12:41:31;;;;;;;1.70;1.70;;;;;;;6.10;73.94;100653.06;6094295;29;20253;-72
2021/05/07 12:44:34;;;;;;;2.00;2.00;;;;;;;6.24;73.27;100652.16;6093272;29;20283;-72
2021/05/07 12:47:37;;;;;;;1.70;1.70;;;;;;;6.13;73.06;100658.94;6094586;29;20196;-72
2021/05/07 12:50:40;;;;;;;1.97;1.90;;;;;;;6.37;73.72;100665.00;6094347;29;20191;-71
2021/05/07 12:53:44;;;;;;;1.83;1.83;;;;;;;6.43;72.80;100675.06;6094513;29;20198;-73
2021/05/07 12:56:48;;;;;;;1.97;1.97;;;;;;;6.37;73.42;100681.28;6094107;29;20224;-72
2021/05/07 12:59:51;;;;;;;1.77;1.77;;;;;;;6.28;71.61;100677.84;6094051;29;20193;-73
2021/05/07 13:02:54;;;;;;;1.60;1.60;;;;;;;6.34;71.07;100681.66;6093901;29;20193;-72
2021/05/07 13:05:58;;;;;;;2.03;1.83;;;;;;;6.43;72.28;100677.78;6093648;29;20227;-72
2021/05/07 13:09:01;;;;;;;1.67;1.50;;;;;;;6.42;70.86;100684.25;6094040;29;20193;-72
2021/05/07 13:12:07;;;;;;;2.70;2.23;;;;;;;6.60;70.66;100671.06;6094030;29;20200;-73
2021/05/07 13:15:13;;;;;;;3.13;2.00;;;;;;;6.55;69.70;100673.53;6092856;29;20426;-72
2021/05/07 13:18:18;;;;;;;4.00;2.40;;;;;;;6.63;69.80;100681.50;6093191;29;20416;-72
2021/05/07 13:21:21;;;;;;;2.33;2.20;;;;;;;6.80;68.07;100682.91;6093621;29;20193;-73
2021/05/07 13:24:28;;;;;;;2.20;2.00;;;;;;;6.90;67.08;100678.84;6096404;29;20224;-73
2021/05/07 13:27:31;;;;;;;2.20;2.10;;;;;;;6.95;66.51;100689.09;6097716;29;20193;-72
2021/05/07 13:30:35;;;;;;;2.10;2.00;;;;;;;6.90;66.36;100683.41;6097053;29;20500;-72
2021/05/07 13:33:39;;;;;;;2.53;2.43;;;;;;;6.93;67.79;100677.59;6097389;29;20193;-72
2021/05/07 13:36:42;;;;;;;2.03;2.03;;;;;;;6.98;66.04;100672.41;6096782;29;20272;-72
2021/05/07 13:39:45;;;;;;;4.40;2.23;;;;;;;6.99;65.37;100660.50;6097316;29;20193;-72
2021/05/07 13:42:55;;;;;;;2.33;2.10;;;;;;;7.25;64.39;100682.41;6098118;29;20268;-72
2021/05/07 13:45:58;;;;;;;2.10;2.10;;;;;;;7.22;63.71;100677.38;6080160;29;20229;-71
2021/05/07 13:49:01;;;;;;;2.03;2.00;;;;;;;7.37;60.95;100686.22;6096811;29;20380;-73
2021/05/07 13:52:05;;;;;;;2.00;2.00;;;;;;;7.38;61.85;100666.19;6098039;29;20193;-72
2021/05/07 13:55:10;;;;;;;2.50;2.40;;;;;;;7.60;60.67;100688.63;6097838;29;20198;-73
2021/05/07 13:58:14;;;;;;;2.10;2.00;;;;;;;8.11;59.26;100691.81;6097371;29;20190;-72
2021/05/07 14:01:17;;;;;;;1.70;1.70;;;;;;;7.80;59.89;100691.47;6097287;29;20253;-72
2021/05/07 14:04:21;;;;;;;2.00;1.90;;;;;;;7.55;60.33;100699.25;6096278;29;20642;-73
2021/05/07 14:07:24;;;;;;;1.67;1.67;;;;;;;7.77;61.59;100691.88;6097701;29;20196;-73
2021/05/07 14:10:28;;;;;;;1.65;1.65;;;;;;;8.38;59.09;100696.28;6097546;29;20193;-73
2021/05/07 14:13:32;;;;;;;1.77;1.77;;;;;;;8.10;57.89;100709.13;6097574;29;20195;-72
2021/05/07 14:16:35;;;;;;;1.70;1.70;;;;;;;8.07;57.60;100712.25;6096103;29;20212;-73
2021/05/07 14:19:39;;;;;;;1.70;1.70;;;;;;;7.76;59.01;100711.91;6097085;29;20205;-72
2021/05/07 14:22:42;;;;;;;1.90;1.90;;;;;;;7.54;60.20;100700.31;6096129;29;20260;-72
2021/05/07 14:25:45;;;;;;;1.70;1.70;;;;;;;7.61;60.03;100697.63;6096543;29;20322;-72
2021/05/07 14:28:49;;;;;;;1.70;1.70;;;;;;;7.74;59.93;100714.00;6097169;29;20190;-73
2021/05/07 14:31:52;;;;;;;2.10;2.10;;;;;;;7.74;60.15;100675.97;6095904;29;20348;-73
2021/05/07 14:34:57;;;;;;;2.00;2.00;;;;;;;7.79;61.09;100711.50;6095737;29;20204;-73